createdAt,value
2022-09-10T00:00:23.876Z,13.40
2022-09-10T00:03:11.843Z,13.50
2022-09-10T00:05:41.333Z,13.30
2022-09-10T00:08:08.989Z,13.30
2022-09-10T00:10:44.686Z,13.30
2022-09-10T00:13:13.832Z,13.30
2022-09-10T00:15:42.795Z,13.30
2022-09-10T00:18:10.543Z,13.40
2022-09-10T00:20:55.404Z,13.40
2022-09-10T00:23:26.107Z,13.40
2022-09-10T00:25:56.068Z,13.40
2022-09-10T00:28:25.558Z,13.30
2022-09-10T00:30:57.431Z,13.30
2022-09-10T00:33:24.946Z,13.30
2022-09-10T00:35:52.026Z,13.30
2022-09-10T00:38:19.243Z,13.30
2022-09-10T00:40:46.953Z,13.40
2022-09-10T00:43:20.783Z,13.30
2022-09-10T00:45:52.758Z,13.30
2022-09-10T00:48:27.144Z,13.30
2022-09-10T00:50:58.996Z,13.20
2022-09-10T00:53:28.532Z,13.20
2022-09-10T00:55:59.908Z,13.20
2022-09-10T00:58:28.711Z,13.20
2022-09-10T01:01:01.703Z,13.20
2022-09-10T01:03:31.331Z,13.20
2022-09-10T01:05:59.199Z,13.20
2022-09-10T01:08:27.582Z,13.20
2022-09-10T01:11:01.616Z,13.20
2022-09-10T01:13:47.176Z,13.20
2022-09-10T01:16:33.157Z,13.20
2022-09-10T01:19:31.176Z,13.20
2022-09-10T01:22:36.533Z,13.20
2022-09-10T01:25:28.713Z,13.10
2022-09-10T01:28:00.874Z,13.20
2022-09-10T01:30:34.376Z,13.20
2022-09-10T01:33:20.574Z,13.10
2022-09-10T01:35:59.133Z,13.10
2022-09-10T01:38:34.911Z,13.20
2022-09-10T01:41:02.784Z,13.20
2022-09-10T01:43:30.715Z,13.20
2022-09-10T01:46:37.805Z,13.20
2022-09-10T01:49:23.545Z,13.10
2022-09-10T01:52:06.896Z,13.10
2022-09-10T01:54:52.990Z,13.20
2022-09-10T01:57:28.981Z,13.10
2022-09-10T02:00:16.054Z,13.10
2022-09-10T02:02:58.330Z,13.10
2022-09-10T02:05:29.151Z,13.10
2022-09-10T02:08:03.732Z,13.10
2022-09-10T02:10:31.439Z,13.10
2022-09-10T02:12:58.718Z,13.10
2022-09-10T02:15:28.911Z,13.10
2022-09-10T02:17:56.438Z,13.10
2022-09-10T02:20:23.774Z,13.10
2022-09-10T02:22:58.663Z,13.10
2022-09-10T02:25:31.878Z,13.10
2022-09-10T02:27:59.642Z,13.10
2022-09-10T02:30:27.352Z,13.10
2022-09-10T02:32:54.426Z,13.00
2022-09-10T02:35:21.639Z,13.00
2022-09-10T02:37:50.636Z,13.00
2022-09-10T02:40:21.570Z,13.00
2022-09-10T02:42:48.877Z,13.00
2022-09-10T02:45:16.599Z,13.00
2022-09-10T02:47:44.903Z,13.00
2022-09-10T02:50:12.138Z,12.90
2022-09-10T02:52:39.641Z,12.90
2022-09-10T02:55:08.002Z,12.90
2022-09-10T02:57:35.162Z,12.90
2022-09-10T03:00:03.668Z,12.80
2022-09-10T03:02:30.776Z,12.80
2022-09-10T03:04:58.117Z,12.80
2022-09-10T03:07:25.668Z,12.80
2022-09-10T03:09:52.797Z,12.80
2022-09-10T03:12:21.468Z,12.80
2022-09-10T03:14:50.001Z,12.80
2022-09-10T03:17:17.144Z,12.80
2022-09-10T03:19:44.781Z,12.90
2022-09-10T03:22:13.731Z,12.90
2022-09-10T03:24:40.921Z,12.70
2022-09-10T03:27:08.702Z,12.70
2022-09-10T03:29:36.577Z,12.80
2022-09-10T03:32:03.763Z,12.70
2022-09-10T03:34:30.931Z,12.70
2022-09-10T03:36:58.346Z,12.70
2022-09-10T03:39:25.518Z,12.70
2022-09-10T03:41:52.599Z,12.70
2022-09-10T03:44:20.111Z,12.70
2022-09-10T03:46:48.882Z,12.80
2022-09-10T03:49:16.108Z,12.80
2022-09-10T03:51:43.597Z,12.80
2022-09-10T03:54:10.775Z,12.80
2022-09-10T03:56:37.906Z,12.80
2022-09-10T03:59:05.446Z,12.80
2022-09-10T04:01:32.594Z,12.80
2022-09-10T04:03:59.678Z,12.80
2022-09-10T04:06:27.200Z,12.80
2022-09-10T04:08:54.334Z,12.80
2022-09-10T04:11:23.958Z,12.90
2022-09-10T04:13:51.537Z,12.80
2022-09-10T04:16:18.928Z,12.90
2022-09-10T04:18:46.425Z,12.90
2022-09-10T04:21:14.418Z,12.90
2022-09-10T04:23:42.159Z,13.00
2022-09-10T04:26:14.733Z,12.90
2022-09-10T04:28:42.248Z,12.90
2022-09-10T04:31:10.179Z,12.90
2022-09-10T04:33:38.223Z,12.90
2022-09-10T04:36:06.201Z,12.90
2022-09-10T04:38:33.722Z,13.00
2022-09-10T04:41:00.987Z,13.00
2022-09-10T04:43:28.924Z,13.00
2022-09-10T04:45:56.455Z,13.00
2022-09-10T04:48:24.469Z,13.00
2022-09-10T04:51:14.848Z,12.90
2022-09-10T04:53:41.074Z,12.90
2022-09-10T04:56:09.108Z,13.00
2022-09-10T04:58:38.944Z,13.00
2022-09-10T05:01:07.402Z,12.90
2022-09-10T05:03:35.080Z,13.00
2022-09-10T05:06:02.776Z,12.90
2022-09-10T05:08:30.429Z,13.00
2022-09-10T05:10:58.263Z,13.00
2022-09-10T05:13:25.352Z,12.90
2022-09-10T05:15:52.529Z,12.90
2022-09-10T05:18:19.857Z,13.00
2022-09-10T05:20:47.005Z,13.10
2022-09-10T05:23:14.352Z,13.10
2022-09-10T05:25:44.472Z,13.10
2022-09-10T05:28:12.257Z,13.10
2022-09-10T05:30:39.609Z,13.00
2022-09-10T05:33:07.220Z,13.00
2022-09-10T05:35:34.811Z,13.00
2022-09-10T05:38:01.975Z,13.00
2022-09-10T05:40:29.667Z,13.00
2022-09-10T05:42:56.791Z,13.00
2022-09-10T05:45:23.894Z,13.00
2022-09-10T05:47:53.043Z,13.00
2022-09-10T05:50:20.404Z,13.00
2022-09-10T05:52:48.458Z,13.10
2022-09-10T05:55:16.032Z,13.10
2022-09-10T05:57:43.227Z,13.10
2022-09-10T06:00:10.919Z,13.10
2022-09-10T06:02:38.447Z,13.20
2022-09-10T06:05:05.886Z,13.10
2022-09-10T06:07:33.608Z,13.20
2022-09-10T06:10:03.928Z,13.20
2022-09-10T06:12:32.297Z,13.10
2022-09-10T06:14:59.714Z,13.10
2022-09-10T06:17:27.188Z,13.20
2022-09-10T06:19:55.956Z,13.10
2022-09-10T06:22:23.878Z,13.10
2022-09-10T06:24:53.894Z,13.10
2022-09-10T06:27:23.434Z,13.10
2022-09-10T06:29:51.420Z,13.10
2022-09-10T06:32:21.763Z,13.10
2022-09-10T06:34:49.704Z,13.20
2022-09-10T06:37:19.326Z,13.10
2022-09-10T06:39:47.441Z,13.10
2022-09-10T06:42:15.241Z,13.20
2022-09-10T06:44:45.611Z,13.20
2022-09-10T06:50:06.511Z,13.20
2022-09-10T06:52:34.240Z,13.30
2022-09-10T06:55:01.479Z,13.30
2022-09-10T06:57:29.825Z,13.30
2022-09-10T06:59:58.994Z,13.30
2022-09-10T07:02:26.741Z,13.40
2022-09-10T07:04:54.019Z,13.50
2022-09-10T07:07:22.271Z,13.50
2022-09-10T07:09:49.875Z,13.40
2022-09-10T07:12:17.566Z,13.40
2022-09-10T07:14:45.369Z,13.30
2022-09-10T07:17:12.900Z,13.40
2022-09-10T07:19:40.388Z,13.40
2022-09-10T07:22:08.640Z,13.40
2022-09-10T07:24:38.660Z,13.40
2022-09-10T07:27:10.096Z,13.40
2022-09-10T07:29:41.808Z,13.50
2022-09-10T07:34:56.377Z,13.50
2022-09-10T07:37:30.366Z,13.50
2022-09-10T07:40:17.507Z,13.60
2022-09-10T07:42:46.172Z,13.60
2022-09-10T09:20:30.983Z,14.30
2022-09-10T09:23:08.250Z,14.40
2022-09-10T09:26:10.706Z,14.40
2022-09-10T09:28:59.392Z,14.50
2022-09-10T09:31:29.157Z,14.40
2022-09-10T09:34:01.946Z,14.30
2022-09-10T09:36:43.063Z,14.30
2022-09-10T09:39:26.686Z,14.30
2022-09-10T09:42:07.968Z,14.30
2022-09-10T09:45:17.463Z,14.40
2022-09-10T09:47:50.055Z,14.20
2022-09-10T09:50:20.994Z,14.20
2022-09-10T09:52:48.100Z,14.20
2022-09-10T09:55:28.696Z,14.30
2022-09-10T09:58:20.946Z,14.40
2022-09-10T10:01:06.099Z,14.40
2022-09-10T10:03:48.637Z,14.40
2022-09-10T10:06:34.779Z,14.50
2022-09-10T10:09:07.793Z,14.50
2022-09-10T10:11:53.742Z,14.50
2022-09-10T10:14:20.770Z,14.50
2022-09-10T10:16:49.526Z,14.50
2022-09-10T10:19:39.129Z,14.50
2022-09-10T10:22:35.661Z,14.50
2022-09-10T10:25:23.856Z,14.40
2022-09-10T10:27:54.023Z,14.40
2022-09-10T10:30:25.184Z,14.40
2022-09-10T10:33:00.080Z,14.30
2022-09-10T10:35:32.843Z,14.40
2022-09-10T10:38:28.602Z,14.40
2022-09-10T10:42:07.868Z,14.40
2022-09-10T10:44:52.747Z,14.50
2022-09-10T10:47:36.390Z,14.60
2022-09-10T10:50:16.096Z,14.70
2022-09-10T10:52:58.674Z,14.70
2022-09-10T10:55:41.526Z,14.70
2022-09-10T10:58:58.114Z,14.70
2022-09-10T11:01:36.885Z,14.80
2022-09-10T11:04:39.817Z,14.80
2022-09-10T11:07:33.870Z,14.90
2022-09-10T11:10:25.097Z,14.80
2022-09-10T11:13:18.426Z,14.80
2022-09-10T11:16:31.935Z,14.60
2022-09-10T11:19:27.082Z,14.40
2022-09-10T11:22:01.297Z,14.30
2022-09-10T11:24:38.721Z,14.30
2022-09-10T11:27:09.117Z,14.30
2022-09-10T11:29:55.234Z,14.40
2022-09-10T11:32:34.713Z,14.50
2022-09-10T11:35:44.126Z,14.60
2022-09-10T11:38:27.318Z,14.60
2022-09-10T11:41:16.016Z,14.60
2022-09-10T11:43:45.972Z,14.60
2022-09-10T11:46:18.928Z,14.70
2022-09-10T11:48:52.059Z,14.80
2022-09-10T11:51:36.967Z,14.80
2022-09-10T11:54:43.682Z,14.80
2022-09-10T11:57:52.127Z,14.70
2022-09-10T12:00:19.926Z,14.50
2022-09-10T12:03:06.708Z,14.30
2022-09-10T12:05:57.802Z,14.30
2022-09-10T12:08:36.400Z,14.30
2022-09-10T12:12:25.930Z,14.20
2022-09-10T12:15:01.044Z,14.20
2022-09-10T12:17:36.895Z,14.20
2022-09-10T12:20:06.900Z,14.20
2022-09-10T12:22:40.481Z,14.30
2022-09-10T12:25:25.075Z,14.30
2022-09-10T12:27:59.001Z,14.40
2022-09-10T12:31:12.115Z,14.40
2022-09-10T12:34:08.221Z,14.50
2022-09-10T12:36:35.242Z,14.40
2022-09-10T12:39:22.564Z,14.50
2022-09-10T12:41:53.143Z,14.50
2022-09-10T12:44:34.410Z,14.60
2022-09-10T12:48:12.953Z,14.60
2022-09-10T12:50:56.686Z,14.40
2022-09-10T12:53:45.262Z,14.40
2022-09-10T12:56:49.329Z,14.40
2022-09-10T12:59:34.880Z,14.40
2022-09-10T13:02:02.095Z,14.30
2022-09-10T13:04:34.766Z,14.30
2022-09-10T13:07:52.089Z,14.30
2022-09-10T13:10:29.483Z,14.40
2022-09-10T13:13:07.023Z,14.50
2022-09-10T13:15:37.330Z,14.50
2022-09-10T13:18:30.445Z,14.50
2022-09-10T13:20:58.738Z,14.60
2022-09-10T13:24:02.983Z,14.50
2022-09-10T13:27:38.206Z,14.60
2022-09-10T13:30:11.463Z,14.50
2022-09-10T13:32:50.130Z,14.50
2022-09-10T13:35:19.885Z,14.50
2022-09-10T13:38:08.739Z,14.60
2022-09-10T13:41:02.754Z,14.50
2022-09-10T13:44:19.176Z,14.50
2022-09-10T13:47:12.731Z,14.60
2022-09-10T13:50:01.029Z,14.60
2022-09-10T13:52:34.541Z,14.60
2022-09-10T13:55:03.341Z,14.70
2022-09-10T13:57:41.317Z,14.60
2022-09-10T14:00:44.349Z,14.40
2022-09-10T14:04:13.072Z,14.40
2022-09-10T14:06:40.213Z,14.40
2022-09-10T14:09:07.763Z,14.30
2022-09-10T14:11:41.462Z,14.30
2022-09-10T14:14:11.241Z,14.50
2022-09-10T14:16:47.481Z,14.50
2022-09-10T14:20:01.283Z,14.50
2022-09-10T14:22:46.589Z,14.60
2022-09-10T14:25:35.694Z,14.60
2022-09-10T14:28:25.337Z,14.60
2022-09-10T14:31:13.803Z,14.70
2022-09-10T14:33:40.892Z,14.70
2022-09-10T14:36:29.338Z,14.90
2022-09-10T14:39:34.092Z,14.80
2022-09-10T14:42:25.246Z,14.70
2022-09-10T14:44:53.709Z,14.60
2022-09-10T14:47:29.896Z,14.50
2022-09-10T14:50:30.993Z,14.40
2022-09-10T14:52:58.508Z,14.50
2022-09-10T14:55:27.418Z,14.30
2022-09-10T14:58:08.539Z,14.30
2022-09-10T15:00:53.953Z,14.40
2022-09-10T15:03:20.888Z,14.20
2022-09-10T15:05:48.142Z,14.20
2022-09-10T15:08:15.031Z,14.20
2022-09-10T15:10:41.953Z,14.20
2022-09-10T15:13:14.821Z,14.20
2022-09-10T15:16:05.013Z,14.20
2022-09-10T15:18:32.295Z,14.30
2022-09-10T15:21:04.044Z,14.20
2022-09-10T15:23:32.246Z,14.20
2022-09-10T15:26:01.936Z,14.30
2022-09-10T15:28:28.894Z,14.30
2022-09-10T15:30:55.852Z,14.30
2022-09-10T15:34:01.044Z,14.30
2022-09-10T15:36:48.270Z,14.40
2022-09-10T15:39:16.030Z,14.50
2022-09-10T15:41:44.829Z,14.40
2022-09-10T15:44:12.281Z,14.50
2022-09-10T15:46:45.133Z,14.50
2022-09-10T15:49:12.178Z,14.40
2022-09-10T15:51:41.384Z,14.40
2022-09-10T15:54:47.263Z,14.40
2022-09-10T15:57:14.134Z,14.30
2022-09-10T15:59:41.183Z,14.30
2022-09-10T16:02:13.115Z,14.20
2022-09-10T16:04:42.945Z,14.10
2022-09-10T16:07:10.984Z,14.10
2022-09-10T16:09:54.724Z,14.00
2022-09-10T16:12:27.928Z,14.00
2022-09-10T16:15:04.699Z,13.90
2022-09-10T16:17:32.240Z,13.90
2022-09-10T16:20:00.132Z,13.90
2022-09-10T16:22:27.714Z,13.90
2022-09-10T16:24:57.022Z,13.80
2022-09-10T16:27:24.480Z,13.80
2022-09-10T16:30:51.548Z,13.80
2022-09-10T16:33:23.567Z,13.80
2022-09-10T16:35:50.509Z,13.80
2022-09-10T16:38:17.414Z,13.70
2022-09-10T16:40:45.549Z,13.70
2022-09-10T16:43:12.864Z,13.80
2022-09-10T16:45:49.941Z,13.70
2022-09-10T16:48:23.756Z,13.70
2022-09-10T16:50:51.130Z,13.70
2022-09-10T16:53:18.201Z,13.70
2022-09-10T16:55:45.701Z,13.60
2022-09-10T16:58:13.038Z,13.60
2022-09-10T17:00:44.402Z,13.60
2022-09-10T17:03:11.321Z,13.60
2022-09-10T17:06:06.394Z,13.60
2022-09-10T17:08:53.439Z,13.50
2022-09-10T17:11:20.974Z,13.50
2022-09-10T17:13:48.163Z,13.50
2022-09-10T17:16:23.045Z,13.50
2022-09-10T17:19:07.096Z,13.60
2022-09-10T17:21:35.438Z,13.70
2022-09-10T17:27:15.081Z,13.70
2022-09-10T17:29:42.341Z,13.70
2022-09-10T17:32:09.274Z,13.60
2022-09-10T17:34:36.214Z,13.60
2022-09-10T17:37:03.371Z,13.40
2022-09-10T17:39:30.425Z,13.50
2022-09-10T17:42:06.032Z,13.40
2022-09-10T17:45:01.045Z,13.50
2022-09-10T17:47:29.441Z,13.60
2022-09-10T17:49:56.958Z,13.60
2022-09-10T17:52:24.118Z,13.60
2022-09-10T17:54:53.995Z,13.60
2022-09-10T17:57:22.346Z,13.60
2022-09-10T18:00:04.998Z,13.50
2022-09-10T18:03:04.177Z,13.50
2022-09-10T18:05:31.100Z,13.50
2022-09-10T18:07:58.183Z,13.40
2022-09-10T18:10:25.270Z,13.50
2022-09-10T18:12:52.181Z,13.50
2022-09-10T18:15:19.635Z,13.40
2022-09-10T18:17:46.528Z,13.50
2022-09-10T18:20:37.086Z,13.50
2022-09-10T18:23:12.710Z,13.50
2022-09-10T18:25:39.759Z,13.50
2022-09-10T18:28:06.824Z,13.50
2022-09-10T18:30:33.711Z,13.50
2022-09-10T18:33:00.605Z,13.50
2022-09-10T18:35:27.708Z,13.40
2022-09-10T18:38:13.795Z,13.40
2022-09-10T18:40:47.599Z,13.40
2022-09-10T18:43:14.513Z,13.40
2022-09-10T18:45:42.216Z,13.40
2022-09-10T18:48:09.081Z,13.40
2022-09-10T18:50:36.402Z,13.40
2022-09-10T18:53:03.462Z,13.40
2022-09-10T18:56:26.235Z,13.40
2022-09-10T18:59:17.005Z,13.40
2022-09-10T19:01:45.652Z,13.40
2022-09-10T19:04:16.344Z,13.30
2022-09-10T19:06:46.824Z,13.40
2022-09-10T19:09:17.368Z,13.40
2022-09-10T19:11:46.669Z,13.40
2022-09-10T19:14:52.834Z,13.40
2022-09-10T19:17:34.630Z,13.40
2022-09-10T19:20:01.872Z,13.50
2022-09-10T19:22:28.860Z,13.50
2022-09-10T19:24:56.278Z,13.50
2022-09-10T19:27:24.490Z,13.50
2022-09-10T19:29:51.844Z,13.40
2022-09-10T19:32:32.051Z,13.40
2022-09-10T19:35:10.367Z,13.40
2022-09-10T19:37:37.250Z,13.40
2022-09-10T19:40:04.685Z,13.50
2022-09-10T19:42:31.676Z,13.40
2022-09-10T19:44:58.555Z,13.50
2022-09-10T19:47:25.601Z,13.40
2022-09-10T19:49:52.974Z,13.40
2022-09-10T19:53:37.128Z,13.40
2022-09-10T19:56:18.289Z,13.40
2022-09-10T19:58:49.953Z,13.40
2022-09-10T20:01:20.278Z,13.40
2022-09-10T20:03:48.273Z,13.40
2022-09-10T20:06:18.318Z,13.40
2022-09-10T20:08:52.976Z,13.40
2022-09-10T20:11:38.695Z,13.40
2022-09-10T20:14:28.905Z,13.40
2022-09-10T20:16:56.897Z,13.40
2022-09-10T20:19:24.006Z,13.30
2022-09-10T20:21:51.730Z,13.30
2022-09-10T20:24:18.720Z,13.30
2022-09-10T20:30:02.792Z,13.20
2022-09-10T20:32:29.878Z,13.30
2022-09-10T20:34:56.813Z,13.30
2022-09-10T20:37:27.694Z,13.20
2022-09-10T20:39:56.707Z,13.20
2022-09-10T20:42:27.788Z,13.20
2022-09-10T20:44:55.542Z,13.20
2022-09-10T20:47:29.272Z,13.20
2022-09-10T20:49:59.260Z,13.30
2022-09-10T20:52:26.389Z,13.30
2022-09-10T20:54:53.279Z,13.40
2022-09-10T20:57:21.236Z,13.30
2022-09-10T20:59:48.283Z,13.20
2022-09-10T21:02:15.295Z,13.20
2022-09-10T21:04:46.206Z,13.20
2022-09-10T21:07:20.983Z,13.20
2022-09-10T21:09:48.903Z,13.10
2022-09-10T21:12:16.124Z,13.10
2022-09-10T21:14:42.988Z,13.00
2022-09-10T21:17:09.914Z,12.90
2022-09-10T21:19:36.963Z,12.90
2022-09-10T21:22:10.851Z,12.90
2022-09-10T21:24:53.424Z,13.00
2022-09-10T21:27:20.391Z,13.00
2022-09-10T21:29:47.720Z,13.00
2022-09-10T21:32:14.580Z,13.00
2022-09-10T21:34:41.474Z,13.00
2022-09-10T21:37:08.652Z,13.00
2022-09-10T21:39:35.698Z,13.00
2022-09-10T21:42:04.346Z,13.10
2022-09-10T21:44:32.213Z,13.00
2022-09-10T21:46:59.128Z,12.90
2022-09-10T21:49:25.993Z,12.90
2022-09-10T21:51:53.032Z,12.80
2022-09-10T21:54:22.003Z,12.80
2022-09-10T21:56:50.337Z,12.80
2022-09-10T21:59:19.394Z,12.80
2022-09-10T22:01:47.293Z,12.80
2022-09-10T22:04:20.039Z,12.80
2022-09-10T22:06:49.767Z,12.80
2022-09-10T22:09:17.530Z,12.90
2022-09-10T22:11:50.288Z,12.80
2022-09-10T22:14:20.857Z,12.80
2022-09-10T22:16:48.334Z,12.80
2022-09-10T22:19:21.699Z,12.70
2022-09-10T22:21:50.122Z,12.60
2022-09-10T22:24:19.670Z,12.60
2022-09-10T22:26:47.235Z,12.60
2022-09-10T22:29:19.298Z,12.60
2022-09-10T22:31:46.674Z,12.60
2022-09-10T22:34:15.736Z,12.70
2022-09-10T22:36:45.073Z,12.70
2022-09-10T22:39:15.072Z,12.70
2022-09-10T22:41:43.098Z,12.70
2022-09-10T22:44:10.745Z,12.80
2022-09-10T22:46:38.997Z,12.80
2022-09-10T22:49:07.187Z,12.80
2022-09-10T22:51:36.888Z,12.80
2022-09-10T22:54:05.222Z,12.80
2022-09-10T22:56:32.534Z,12.80
2022-09-10T22:59:00.042Z,12.80
2022-09-10T23:01:33.720Z,12.80
2022-09-10T23:04:01.924Z,12.80
2022-09-10T23:06:33.067Z,12.80
2022-09-10T23:09:18.342Z,12.80
2022-09-10T23:11:45.879Z,12.70
2022-09-10T23:14:22.162Z,12.70
2022-09-10T23:16:51.798Z,12.70
2022-09-10T23:19:22.253Z,12.70
2022-09-10T23:21:52.179Z,12.70
2022-09-10T23:24:21.897Z,12.70
2022-09-10T23:26:48.950Z,12.70
2022-09-10T23:29:20.491Z,12.70
2022-09-10T23:31:47.836Z,12.70
2022-09-10T23:34:20.503Z,12.60
2022-09-10T23:36:49.354Z,12.60
2022-09-10T23:39:21.676Z,12.60
2022-09-10T23:41:50.510Z,12.60
2022-09-10T23:44:18.192Z,12.60
2022-09-10T23:46:45.694Z,12.60
2022-09-10T23:49:25.267Z,12.60
2022-09-10T23:51:52.562Z,12.60
2022-09-10T23:54:20.494Z,12.60
2022-09-10T23:56:47.456Z,12.60
2022-09-10T23:59:15.400Z,12.50
